createdAt,value
2018-08-30T00:01:07.079Z,0
2018-08-30T00:02:17.018Z,0
2018-08-30T00:03:26.709Z,0
2018-08-30T00:04:36.122Z,0
2018-08-30T00:05:45.786Z,0
2018-08-30T00:06:55.465Z,0
2018-08-30T00:08:05.397Z,0
2018-08-30T00:09:15.326Z,0
2018-08-30T00:10:25.038Z,0
2018-08-30T00:11:34.509Z,0
2018-08-30T00:12:43.405Z,0
2018-08-30T00:13:52.834Z,0
2018-08-30T00:15:01.752Z,0
2018-08-30T00:16:11.198Z,0
2018-08-30T00:17:20.094Z,0
2018-08-30T00:18:29.514Z,0
2018-08-30T00:19:39.178Z,0
2018-08-30T00:20:48.911Z,0
2018-08-30T00:21:57.823Z,0
2018-08-30T00:23:07.521Z,0
2018-08-30T00:24:16.954Z,0
2018-08-30T00:25:26.382Z,0
2018-08-30T00:26:35.811Z,0
2018-08-30T00:27:45.246Z,0
2018-08-30T00:28:54.159Z,0
2018-08-30T00:30:03.592Z,0
2018-08-30T00:31:13.272Z,0
2018-08-30T00:32:22.452Z,0
2018-08-30T00:33:31.875Z,0
2018-08-30T00:34:41.297Z,0
2018-08-30T00:35:50.215Z,0
2018-08-30T00:36:59.423Z,0
2018-08-30T00:38:08.833Z,0
2018-08-30T00:39:18.505Z,0
2018-08-30T00:40:27.913Z,0
2018-08-30T00:41:37.344Z,0
2018-08-30T00:42:46.252Z,0
2018-08-30T00:43:55.942Z,0
2018-08-30T00:45:05.612Z,0
2018-08-30T00:46:15.047Z,0
2018-08-30T00:47:24.192Z,0
2018-08-30T00:48:33.361Z,0
2018-08-30T00:49:42.515Z,0
2018-08-30T00:50:51.936Z,0
2018-08-30T00:52:01.352Z,0
2018-08-30T00:53:10.766Z,0
2018-08-30T00:54:20.175Z,0
2018-08-30T00:55:29.595Z,0
2018-08-30T00:56:38.800Z,0
2018-08-30T00:57:47.968Z,0
2018-08-30T00:58:57.630Z,0
2018-08-30T01:00:07.049Z,0
2018-08-30T01:01:16.215Z,0
2018-08-30T01:02:25.624Z,0
2018-08-30T01:03:35.321Z,0
2018-08-30T01:04:44.241Z,0
2018-08-30T01:05:54.192Z,0
2018-08-30T01:07:03.862Z,0
2018-08-30T01:08:13.292Z,0
2018-08-30T01:09:22.950Z,0
2018-08-30T01:10:31.866Z,0
2018-08-30T01:11:41.304Z,0
2018-08-30T01:12:50.723Z,0
2018-08-30T01:13:59.886Z,0
2018-08-30T01:15:09.064Z,0
2018-08-30T01:16:17.957Z,0
2018-08-30T01:17:27.112Z,0
2018-08-30T01:18:36.791Z,0
2018-08-30T01:19:46.465Z,0
2018-08-30T01:20:55.634Z,0
2018-08-30T01:22:04.785Z,0
2018-08-30T01:23:14.465Z,0
2018-08-30T01:24:23.919Z,0
2018-08-30T01:25:33.088Z,0
2018-08-30T01:26:42.257Z,0
2018-08-30T01:27:51.680Z,0
2018-08-30T01:29:00.822Z,0
2018-08-30T01:30:10.000Z,0
2018-08-30T01:31:19.672Z,0
2018-08-30T01:32:29.121Z,0
2018-08-30T01:33:38.287Z,0
2018-08-30T01:34:47.442Z,0
2018-08-30T01:35:56.378Z,0
2018-08-30T01:37:05.799Z,0
2018-08-30T01:38:15.737Z,0
2018-08-30T01:39:25.151Z,0
2018-08-30T01:40:34.563Z,0
2018-08-30T01:41:44.267Z,0
2018-08-30T01:42:53.170Z,0
2018-08-30T01:44:02.854Z,0
2018-08-30T01:45:12.521Z,0
2018-08-30T01:46:21.741Z,0
2018-08-30T01:47:31.157Z,0
2018-08-30T01:48:40.307Z,0
2018-08-30T01:49:49.724Z,0
2018-08-30T01:50:59.143Z,0
2018-08-30T01:52:08.297Z,0
2018-08-30T01:53:17.454Z,0
2018-08-30T01:54:27.423Z,0
2018-08-30T01:55:36.856Z,0
2018-08-30T01:56:46.017Z,0
2018-08-30T01:57:55.250Z,0
2018-08-30T01:59:04.940Z,0
2018-08-30T02:00:14.622Z,0
2018-08-30T02:01:24.289Z,0
2018-08-30T02:02:33.712Z,0
2018-08-30T02:03:42.867Z,0
2018-08-30T02:04:52.563Z,0
2018-08-30T02:06:01.999Z,0
2018-08-30T02:07:11.165Z,0
2018-08-30T02:08:20.581Z,0
2018-08-30T02:09:29.764Z,0
2018-08-30T02:10:38.666Z,0
2018-08-30T02:11:47.575Z,0
2018-08-30T02:12:57.011Z,0
2018-08-30T02:14:06.450Z,0
2018-08-30T02:15:15.625Z,0
2018-08-30T02:16:25.075Z,0
2018-08-30T02:17:34.750Z,0
2018-08-30T02:18:44.409Z,0
2018-08-30T02:19:54.373Z,0
2018-08-30T02:21:03.821Z,0
2018-08-30T02:22:13.773Z,0
2018-08-30T02:23:23.203Z,0
2018-08-30T02:24:32.890Z,0
2018-08-30T02:25:42.053Z,0
2018-08-30T02:26:51.484Z,0
2018-08-30T02:28:00.389Z,0
2018-08-30T02:29:09.806Z,0
2018-08-30T02:30:18.984Z,0
2018-08-30T02:31:28.145Z,0
2018-08-30T02:32:37.588Z,0
2018-08-30T02:33:46.747Z,0
2018-08-30T02:34:55.658Z,0
2018-08-30T02:36:05.344Z,0
2018-08-30T02:37:14.768Z,0
2018-08-30T02:38:24.469Z,0
2018-08-30T02:39:33.903Z,0
2018-08-30T02:40:43.332Z,0
2018-08-30T02:41:53.298Z,0
2018-08-30T02:43:02.977Z,0
2018-08-30T02:44:12.662Z,0
2018-08-30T02:45:21.579Z,0
2018-08-30T02:46:31.016Z,0
2018-08-30T02:47:40.685Z,0
2018-08-30T02:48:50.109Z,0
2018-08-30T02:49:59.292Z,0
2018-08-30T02:51:09.258Z,0
2018-08-30T02:52:18.723Z,0
2018-08-30T02:53:28.381Z,0
2018-08-30T02:54:37.644Z,0
2018-08-30T02:55:46.827Z,0
2018-08-30T02:56:55.757Z,0
2018-08-30T02:58:05.188Z,0
2018-08-30T02:59:14.870Z,0
2018-08-30T03:00:24.039Z,0
2018-08-30T03:01:32.940Z,0
2018-08-30T03:02:42.385Z,0
2018-08-30T03:03:52.341Z,0
2018-08-30T03:05:01.282Z,0
2018-08-30T03:06:11.227Z,0
2018-08-30T03:07:20.888Z,0
2018-08-30T03:08:30.051Z,0
2018-08-30T03:09:39.475Z,0
2018-08-30T03:10:48.912Z,0
2018-08-30T03:11:58.589Z,0
2018-08-30T03:13:08.282Z,0
2018-08-30T03:14:17.461Z,0
2018-08-30T03:15:27.156Z,0
2018-08-30T03:16:36.584Z,0
2018-08-30T03:17:45.770Z,0
2018-08-30T03:18:55.205Z,0
2018-08-30T03:20:04.124Z,0
2018-08-30T03:21:13.540Z,0
2018-08-30T03:22:23.478Z,0
2018-08-30T03:23:32.917Z,0
2018-08-30T03:24:42.373Z,0
2018-08-30T03:25:51.800Z,0
2018-08-30T03:27:00.993Z,0
2018-08-30T03:28:10.656Z,0
2018-08-30T03:29:20.085Z,0
2018-08-30T03:30:30.173Z,0
2018-08-30T03:31:39.933Z,0
2018-08-30T03:32:49.112Z,0
2018-08-30T03:33:58.574Z,0
2018-08-30T03:35:08.534Z,0
2018-08-30T03:36:17.699Z,0
2018-08-30T03:37:27.792Z,0
2018-08-30T03:38:37.493Z,0
2018-08-30T03:39:47.220Z,0
2018-08-30T03:40:56.923Z,0
2018-08-30T03:42:06.113Z,0
2018-08-30T03:43:15.557Z,0
2018-08-30T03:44:24.984Z,0
2018-08-30T03:45:34.408Z,0
2018-08-30T03:46:43.840Z,0
2018-08-30T03:47:53.301Z,0
2018-08-30T03:49:02.999Z,0
2018-08-30T03:50:12.433Z,0
2018-08-30T03:51:21.340Z,0
2018-08-30T03:52:30.770Z,0
2018-08-30T03:53:40.223Z,0
2018-08-30T03:54:50.159Z,0
2018-08-30T03:55:59.591Z,0
2018-08-30T03:57:08.999Z,0
2018-08-30T03:58:18.681Z,0
2018-08-30T03:59:28.106Z,0
2018-08-30T04:00:37.278Z,0
2018-08-30T04:01:46.192Z,0
2018-08-30T04:02:56.151Z,0
2018-08-30T04:04:05.856Z,0
2018-08-30T04:05:15.301Z,0
2018-08-30T04:06:25.239Z,0
2018-08-30T04:07:34.903Z,0
2018-08-30T04:08:44.601Z,0
2018-08-30T04:09:54.739Z,0
2018-08-30T04:11:03.932Z,0
2018-08-30T04:12:13.114Z,0
2018-08-30T04:13:21.890Z,0
2018-08-30T04:14:31.657Z,0
2018-08-30T04:15:40.851Z,0
2018-08-30T04:16:50.023Z,0
2018-08-30T04:17:58.938Z,0
2018-08-30T04:19:08.124Z,0
2018-08-30T04:20:17.805Z,0
2018-08-30T04:21:27.236Z,0
2018-08-30T04:22:36.654Z,0
2018-08-30T04:23:46.341Z,0
2018-08-30T04:24:56.010Z,0
2018-08-30T04:26:05.730Z,0
2018-08-30T04:27:15.700Z,0
2018-08-30T04:28:24.892Z,0
2018-08-30T04:29:34.580Z,0
2018-08-30T04:30:43.504Z,0
2018-08-30T04:31:52.931Z,0
2018-08-30T04:33:02.093Z,0
2018-08-30T04:34:11.522Z,0
2018-08-30T04:35:20.697Z,0
2018-08-30T04:36:29.867Z,0
2018-08-30T04:37:39.063Z,0
2018-08-30T04:38:48.488Z,0
2018-08-30T04:39:58.172Z,0
2018-08-30T04:41:08.178Z,0
2018-08-30T04:42:18.287Z,0
2018-08-30T04:43:27.989Z,0
2018-08-30T04:44:37.475Z,0
2018-08-30T04:45:46.903Z,0
2018-08-30T04:46:56.329Z,0
2018-08-30T04:48:05.758Z,0
2018-08-30T04:49:15.171Z,0
2018-08-30T04:50:24.793Z,0
2018-08-30T04:51:33.962Z,0
2018-08-30T04:52:43.388Z,0
2018-08-30T04:53:52.816Z,0
2018-08-30T04:55:01.710Z,0
2018-08-30T04:56:11.158Z,0
2018-08-30T04:57:20.364Z,0
2018-08-30T04:58:29.524Z,0
2018-08-30T04:59:39.646Z,0
2018-08-30T05:00:49.079Z,0
2018-08-30T05:01:58.420Z,0
2018-08-30T05:03:07.846Z,0
2018-08-30T05:04:17.540Z,0
2018-08-30T05:05:26.701Z,0
2018-08-30T05:06:36.375Z,0
2018-08-30T05:07:45.049Z,0
2018-08-30T05:08:55.171Z,0
2018-08-30T05:10:04.923Z,0
2018-08-30T05:11:14.371Z,0
2018-08-30T05:12:23.550Z,0
2018-08-30T05:13:32.981Z,0
2018-08-30T05:14:42.688Z,0
2018-08-30T05:15:51.863Z,0
2018-08-30T05:17:01.799Z,0
2018-08-30T05:18:10.995Z,0
2018-08-30T05:19:20.709Z,0
2018-08-30T05:20:30.668Z,0
2018-08-30T05:21:40.356Z,0
2018-08-30T05:22:49.522Z,0
2018-08-30T05:23:58.166Z,4
2018-08-30T05:25:07.849Z,4
2018-08-30T05:26:17.276Z,4
2018-08-30T05:27:26.696Z,0
2018-08-30T05:28:36.175Z,0
2018-08-30T05:29:46.119Z,0
2018-08-30T05:30:55.093Z,4
2018-08-30T05:32:04.527Z,4
2018-08-30T05:33:13.691Z,4
2018-08-30T05:34:23.108Z,0
2018-08-30T05:35:32.539Z,0
2018-08-30T05:36:42.022Z,4
2018-08-30T05:37:50.941Z,0
2018-08-30T05:39:00.428Z,0
2018-08-30T05:40:09.863Z,0
2018-08-30T05:41:19.277Z,4
2018-08-30T05:42:28.699Z,4
2018-08-30T05:43:38.124Z,0
2018-08-30T05:44:47.332Z,4
2018-08-30T05:45:56.478Z,0
2018-08-30T05:47:05.441Z,4
2018-08-30T05:48:14.901Z,4
2018-08-30T05:49:24.066Z,0
2018-08-30T05:50:33.232Z,0
2018-08-30T05:51:42.439Z,0
2018-08-30T05:52:52.101Z,4
2018-08-30T05:54:01.523Z,4
2018-08-30T05:55:10.933Z,4
2018-08-30T05:56:19.848Z,0
2018-08-30T05:57:28.791Z,0
2018-08-30T05:58:37.701Z,0
2018-08-30T05:59:46.902Z,4
2018-08-30T06:00:56.853Z,0
2018-08-30T06:02:06.535Z,0
2018-08-30T06:03:15.718Z,0
2018-08-30T06:04:25.148Z,0
2018-08-30T06:05:34.325Z,0
2018-08-30T06:06:43.746Z,4
2018-08-30T06:07:53.168Z,4
2018-08-30T06:09:02.597Z,4
2018-08-30T06:10:12.283Z,0
2018-08-30T06:11:21.725Z,0
2018-08-30T06:12:31.674Z,0
2018-08-30T06:13:40.844Z,0
2018-08-30T06:14:50.282Z,0
2018-08-30T06:15:59.456Z,0
2018-08-30T06:17:08.631Z,0
2018-08-30T06:18:17.550Z,0
2018-08-30T06:19:27.009Z,0
2018-08-30T06:20:36.692Z,4
2018-08-30T06:21:45.874Z,4
2018-08-30T06:22:55.295Z,0
2018-08-30T06:24:04.989Z,4
2018-08-30T06:25:14.674Z,4
2018-08-30T06:26:24.355Z,0
2018-08-30T06:27:33.536Z,4
2018-08-30T06:28:42.953Z,4
2018-08-30T06:29:52.126Z,0
2018-08-30T06:31:01.817Z,0
2018-08-30T06:32:11.254Z,4
2018-08-30T06:33:20.669Z,0
2018-08-30T06:34:29.891Z,4
2018-08-30T06:35:39.420Z,0
2018-08-30T06:36:48.585Z,0
2018-08-30T06:37:57.772Z,0
2018-08-30T06:39:06.688Z,0
2018-08-30T06:40:15.875Z,4
2018-08-30T06:41:25.296Z,4
2018-08-30T06:42:34.465Z,4
2018-08-30T06:43:44.155Z,4
2018-08-30T06:44:53.583Z,4
2018-08-30T06:46:02.996Z,0
2018-08-30T06:47:12.168Z,0
2018-08-30T06:48:21.343Z,4
2018-08-30T06:49:30.511Z,4
2018-08-30T06:50:39.927Z,4
2018-08-30T06:51:49.596Z,0
2018-08-30T06:52:59.029Z,0
2018-08-30T06:54:08.449Z,4
2018-08-30T06:55:17.880Z,4
2018-08-30T06:56:27.264Z,4
2018-08-30T06:57:37.349Z,4
2018-08-30T06:58:46.767Z,0
2018-08-30T06:59:55.956Z,4
2018-08-30T07:01:05.639Z,4
2018-08-30T07:02:14.547Z,8
2018-08-30T07:03:23.976Z,4
2018-08-30T07:04:33.416Z,8
2018-08-30T07:05:42.579Z,4
2018-08-30T07:06:52.029Z,4
2018-08-30T07:08:02.065Z,4
2018-08-30T07:09:11.832Z,4
2018-08-30T07:10:21.506Z,4
2018-08-30T07:11:31.200Z,4
2018-08-30T07:12:40.608Z,8
2018-08-30T07:13:49.753Z,8
2018-08-30T07:14:59.131Z,4
2018-08-30T07:16:08.405Z,8
2018-08-30T07:17:18.321Z,4
2018-08-30T07:18:27.755Z,8
2018-08-30T07:19:37.693Z,8
2018-08-30T07:20:46.878Z,8
2018-08-30T07:21:55.763Z,8
2018-08-30T07:23:04.677Z,8
2018-08-30T07:24:14.803Z,8
2018-08-30T07:25:24.261Z,4
2018-08-30T07:26:33.432Z,8
2018-08-30T07:27:42.882Z,4
2018-08-30T07:28:52.311Z,4
2018-08-30T07:30:01.471Z,4
2018-08-30T07:31:10.888Z,8
2018-08-30T07:32:20.574Z,8
2018-08-30T07:33:29.244Z,8
2018-08-30T07:34:39.227Z,8
2018-08-30T07:35:48.233Z,8
2018-08-30T07:36:57.408Z,8
2018-08-30T07:38:07.359Z,12
2018-08-30T07:39:16.559Z,8
2018-08-30T07:40:26.241Z,12
2018-08-30T07:41:35.933Z,8
2018-08-30T07:42:45.359Z,12
2018-08-30T07:43:54.259Z,12
2018-08-30T07:45:03.407Z,12
2018-08-30T07:46:12.828Z,16
2018-08-30T07:47:22.792Z,12
2018-08-30T07:48:32.541Z,12
2018-08-30T07:49:41.196Z,12
2018-08-30T07:50:50.849Z,16
2018-08-30T07:52:00.883Z,16
2018-08-30T07:53:10.570Z,8
2018-08-30T07:54:19.776Z,12
2018-08-30T07:55:29.535Z,12
2018-08-30T07:56:38.702Z,8
2018-08-30T07:57:48.152Z,4
2018-08-30T07:58:57.074Z,8
2018-08-30T08:00:07.656Z,8
2018-08-30T08:01:17.939Z,8
2018-08-30T08:02:26.857Z,8
2018-08-30T08:03:36.290Z,8
2018-08-30T08:04:45.460Z,8
2018-08-30T08:05:54.740Z,8
2018-08-30T08:07:04.417Z,12
2018-08-30T08:08:13.918Z,8
2018-08-30T08:09:23.347Z,8
2018-08-30T08:10:32.773Z,8
2018-08-30T08:11:42.203Z,8
2018-08-30T08:12:52.224Z,8
2018-08-30T08:14:01.119Z,12
2018-08-30T08:15:10.537Z,16
2018-08-30T08:16:20.473Z,12
2018-08-30T08:17:29.892Z,16
2018-08-30T08:18:39.575Z,16
2018-08-30T08:19:49.002Z,16
2018-08-30T08:20:58.184Z,16
2018-08-30T08:22:07.879Z,16
2018-08-30T08:23:17.306Z,16
2018-08-30T08:24:26.211Z,20
2018-08-30T08:25:35.747Z,16
2018-08-30T08:26:45.443Z,16
2018-08-30T08:27:55.115Z,16
2018-08-30T08:29:04.036Z,12
2018-08-30T08:30:13.457Z,12
2018-08-30T08:31:22.866Z,8
2018-08-30T08:32:32.865Z,12
2018-08-30T08:33:42.026Z,16
2018-08-30T08:34:51.205Z,12
2018-08-30T08:36:00.885Z,16
2018-08-30T08:37:10.563Z,8
2018-08-30T08:38:19.733Z,20
2018-08-30T08:39:28.925Z,16
2018-08-30T08:40:38.381Z,20
2018-08-30T08:41:47.812Z,20
2018-08-30T08:42:57.002Z,20
2018-08-30T08:44:06.682Z,20
2018-08-30T08:45:16.117Z,12
2018-08-30T08:46:25.533Z,12
2018-08-30T08:47:35.224Z,20
2018-08-30T08:48:44.142Z,12
2018-08-30T08:49:53.076Z,8
2018-08-30T08:51:02.263Z,8
2018-08-30T08:52:11.958Z,4
2018-08-30T08:53:20.898Z,4
2018-08-30T08:54:30.139Z,8
2018-08-30T08:55:39.054Z,8
2018-08-30T08:56:48.461Z,20
2018-08-30T08:57:57.623Z,8
2018-08-30T08:59:07.325Z,20
2018-08-30T09:00:16.870Z,12
2018-08-30T09:01:26.029Z,24
2018-08-30T09:02:35.787Z,24
2018-08-30T09:03:45.019Z,20
2018-08-30T09:04:53.917Z,16
2018-08-30T09:06:03.358Z,12
2018-08-30T09:07:13.490Z,8
2018-08-30T09:08:23.365Z,8
2018-08-30T09:09:33.054Z,20
2018-08-30T09:10:42.485Z,12
2018-08-30T09:11:52.201Z,12
2018-08-30T09:13:01.631Z,24
2018-08-30T09:14:11.324Z,24
2018-08-30T09:15:20.750Z,24
2018-08-30T09:16:29.916Z,20
2018-08-30T09:17:39.076Z,20
2018-08-30T09:18:48.760Z,8
2018-08-30T09:19:58.492Z,8
2018-08-30T09:21:08.176Z,8
2018-08-30T09:22:17.667Z,8
2018-08-30T09:23:26.329Z,24
2018-08-30T09:24:36.271Z,20
2018-08-30T09:25:45.692Z,24
2018-08-30T09:26:55.128Z,24
2018-08-30T09:28:05.255Z,24
2018-08-30T09:29:14.688Z,24
2018-08-30T09:30:24.617Z,16
2018-08-30T09:31:34.036Z,12
2018-08-30T09:32:43.719Z,16
2018-08-30T09:33:53.685Z,12
2018-08-30T09:35:03.341Z,12
2018-08-30T09:36:12.519Z,12
2018-08-30T09:37:21.683Z,8
2018-08-30T09:38:31.125Z,8
2018-08-30T09:39:40.296Z,8
2018-08-30T09:40:49.490Z,8
2018-08-30T09:41:58.653Z,4
2018-08-30T09:43:07.569Z,8
2018-08-30T09:44:16.478Z,12
2018-08-30T09:45:25.905Z,20
2018-08-30T09:46:34.809Z,16
2018-08-30T09:47:44.505Z,24
2018-08-30T09:48:53.709Z,20
2018-08-30T09:50:03.151Z,20
2018-08-30T09:51:12.340Z,24
2018-08-30T09:52:21.016Z,24
2018-08-30T09:53:30.188Z,24
2018-08-30T09:54:39.132Z,12
2018-08-30T09:55:49.672Z,24
2018-08-30T09:56:59.235Z,24
2018-08-30T09:58:08.412Z,24
2018-08-30T09:59:17.589Z,24
2018-08-30T10:00:26.495Z,24
2018-08-30T10:01:36.181Z,24
2018-08-30T10:02:45.359Z,24
2018-08-30T10:03:55.041Z,20
2018-08-30T10:05:04.343Z,12
2018-08-30T10:06:13.808Z,20
2018-08-30T10:07:23.262Z,20
2018-08-30T10:08:32.690Z,20
2018-08-30T10:09:41.874Z,24
2018-08-30T10:10:51.361Z,24
2018-08-30T10:12:00.782Z,24
2018-08-30T10:13:09.949Z,24
2018-08-30T10:14:19.399Z,24
2018-08-30T10:15:29.077Z,24
2018-08-30T10:16:38.771Z,28
2018-08-30T10:17:47.932Z,20
2018-08-30T10:18:57.258Z,16
2018-08-30T10:20:06.950Z,8
2018-08-30T10:21:16.120Z,12
2018-08-30T10:22:25.631Z,8
2018-08-30T10:23:35.047Z,8
2018-08-30T10:24:44.463Z,8
2018-08-30T10:25:53.727Z,16
2018-08-30T10:27:03.444Z,20
2018-08-30T10:28:12.893Z,16
2018-08-30T10:29:21.877Z,24
2018-08-30T10:30:31.284Z,20
2018-08-30T10:31:41.152Z,12
2018-08-30T10:32:50.399Z,20
2018-08-30T10:33:59.566Z,20
2018-08-30T10:35:09.022Z,20
2018-08-30T10:36:18.198Z,20
2018-08-30T10:37:28.155Z,24
2018-08-30T10:38:37.336Z,28
2018-08-30T10:39:47.028Z,28
2018-08-30T10:40:56.442Z,28
2018-08-30T10:42:05.869Z,28
2018-08-30T10:43:15.044Z,24
2018-08-30T10:44:24.749Z,16
2018-08-30T10:45:34.181Z,24
2018-08-30T10:46:43.604Z,24
2018-08-30T10:47:53.028Z,24
2018-08-30T10:49:02.455Z,20
2018-08-30T10:50:11.659Z,20
2018-08-30T10:51:21.077Z,24
2018-08-30T10:52:30.492Z,24
2018-08-30T10:53:39.670Z,24
2018-08-30T10:54:49.121Z,24
2018-08-30T10:55:58.282Z,24
2018-08-30T10:57:07.462Z,20
2018-08-30T10:58:16.687Z,24
2018-08-30T10:59:26.619Z,24
2018-08-30T11:00:36.321Z,24
2018-08-30T11:01:45.223Z,24
2018-08-30T11:02:54.409Z,8
2018-08-30T11:04:03.616Z,12
2018-08-30T11:05:13.329Z,12
2018-08-30T11:06:22.746Z,24
2018-08-30T11:07:32.158Z,8
2018-08-30T11:08:41.326Z,8
2018-08-30T11:09:51.036Z,8
2018-08-30T11:11:00.815Z,12
2018-08-30T11:12:10.519Z,20
2018-08-30T11:13:20.401Z,24
2018-08-30T11:14:30.216Z,24
2018-08-30T11:15:39.923Z,24
2018-08-30T11:16:49.093Z,12
2018-08-30T11:17:58.266Z,12
2018-08-30T11:19:07.690Z,12
2018-08-30T11:20:16.352Z,12
2018-08-30T11:21:26.292Z,24
2018-08-30T11:22:35.464Z,28
2018-08-30T11:23:45.207Z,16
2018-08-30T11:24:54.136Z,12
2018-08-30T11:26:03.571Z,20
2018-08-30T11:27:13.067Z,16
2018-08-30T11:28:22.759Z,28
2018-08-30T11:29:32.180Z,24
2018-08-30T11:30:41.350Z,24
2018-08-30T11:31:50.522Z,20
2018-08-30T11:33:00.487Z,24
2018-08-30T11:34:09.918Z,28
2018-08-30T11:35:18.836Z,24
2018-08-30T11:36:28.265Z,24
2018-08-30T11:37:37.824Z,24
2018-08-30T11:38:47.436Z,24
2018-08-30T11:39:56.860Z,28
2018-08-30T11:41:05.776Z,28
2018-08-30T11:42:15.793Z,28
2018-08-30T11:43:25.528Z,24
2018-08-30T11:44:35.246Z,24
2018-08-30T11:45:45.190Z,28
2018-08-30T11:46:54.878Z,28
2018-08-30T11:48:03.799Z,20
2018-08-30T11:49:13.500Z,28
2018-08-30T11:50:22.671Z,32
2018-08-30T11:51:32.113Z,28
2018-08-30T11:52:42.323Z,28
2018-08-30T11:53:51.541Z,16
2018-08-30T11:55:01.222Z,16
2018-08-30T11:56:10.416Z,12
2018-08-30T11:57:19.583Z,12
2018-08-30T11:58:28.514Z,12
2018-08-30T11:59:38.453Z,12
2018-08-30T12:00:48.586Z,12
2018-08-30T12:01:57.992Z,16
2018-08-30T12:03:07.748Z,28
2018-08-30T12:04:17.441Z,12
2018-08-30T12:05:26.845Z,12
2018-08-30T12:06:36.828Z,16
2018-08-30T12:07:45.793Z,32
2018-08-30T12:08:55.052Z,32
2018-08-30T12:10:04.734Z,12
2018-08-30T12:11:14.267Z,12
2018-08-30T12:12:23.254Z,12
2018-08-30T12:13:32.420Z,12
2018-08-30T12:14:41.337Z,32
2018-08-30T12:15:51.028Z,12
2018-08-30T12:17:00.462Z,12
2018-08-30T12:18:09.655Z,12
2018-08-30T12:19:18.825Z,28
2018-08-30T12:20:28.727Z,12
2018-08-30T12:21:37.816Z,12
2018-08-30T12:22:47.768Z,8
2018-08-30T12:23:57.195Z,12
2018-08-30T12:25:06.628Z,12
2018-08-30T12:26:15.785Z,8
2018-08-30T12:27:24.988Z,16
2018-08-30T12:28:34.853Z,8
2018-08-30T12:29:44.876Z,8
2018-08-30T12:30:54.691Z,8
2018-08-30T12:32:04.355Z,8
2018-08-30T12:33:14.486Z,8
2018-08-30T12:34:24.134Z,8
2018-08-30T12:35:34.071Z,12
2018-08-30T12:36:44.031Z,12
2018-08-30T12:37:54.123Z,12
2018-08-30T12:39:03.198Z,12
2018-08-30T12:40:13.361Z,36
2018-08-30T12:41:23.246Z,12
2018-08-30T12:42:32.605Z,12
2018-08-30T12:43:42.790Z,12
2018-08-30T12:44:52.081Z,12
2018-08-30T12:46:01.277Z,12
2018-08-30T12:47:10.530Z,12
2018-08-30T12:48:20.065Z,12
2018-08-30T12:49:29.844Z,12
2018-08-30T12:50:40.095Z,12
2018-08-30T12:51:51.198Z,44
2018-08-30T12:53:02.358Z,44
2018-08-30T12:54:12.866Z,12
2018-08-30T12:55:23.012Z,12
2018-08-30T12:56:32.507Z,36
2018-08-30T12:57:42.778Z,12
2018-08-30T12:58:53.336Z,20
2018-08-30T13:00:03.652Z,44
2018-08-30T13:01:14.157Z,44
2018-08-30T13:02:23.960Z,44
2018-08-30T13:03:34.347Z,48
2018-08-30T13:04:45.744Z,48
2018-08-30T13:05:57.343Z,48
2018-08-30T13:07:09.256Z,48
2018-08-30T13:08:20.860Z,52
2018-08-30T13:09:32.169Z,52
2018-08-30T13:10:43.666Z,28
2018-08-30T13:11:55.573Z,12
2018-08-30T13:13:07.341Z,8
2018-08-30T13:14:19.684Z,8
2018-08-30T13:15:30.876Z,12
2018-08-30T13:16:41.808Z,48
2018-08-30T13:17:53.640Z,12
2018-08-30T13:19:04.816Z,12
2018-08-30T13:20:15.318Z,16
2018-08-30T13:21:25.885Z,48
2018-08-30T13:22:38.017Z,48
2018-08-30T13:23:50.112Z,12
2018-08-30T13:25:01.778Z,20
2018-08-30T13:26:13.681Z,48
2018-08-30T13:27:24.080Z,52
2018-08-30T13:28:36.062Z,52
2018-08-30T13:29:47.434Z,56
2018-08-30T13:31:01.144Z,56
2018-08-30T13:32:13.458Z,60
2018-08-30T13:33:28.559Z,56
2018-08-30T13:34:41.424Z,56
2018-08-30T13:35:53.661Z,16
2018-08-30T13:37:06.185Z,56
2018-08-30T13:38:20.699Z,52
2018-08-30T13:39:35.440Z,56
2018-08-30T13:40:49.759Z,52
2018-08-30T13:42:03.487Z,12
2018-08-30T13:43:13.347Z,56
2018-08-30T13:44:24.911Z,56
2018-08-30T13:45:35.926Z,8
2018-08-30T13:46:48.526Z,12
2018-08-30T13:47:59.201Z,8
2018-08-30T13:49:12.980Z,8
2018-08-30T13:50:23.547Z,8
2018-08-30T13:51:35.044Z,52
2018-08-30T13:52:47.278Z,52
2018-08-30T13:53:59.038Z,52
2018-08-30T13:55:12.196Z,12
2018-08-30T13:56:24.069Z,44
2018-08-30T13:57:39.459Z,8
2018-08-30T13:58:52.754Z,8
2018-08-30T14:00:06.966Z,8
2018-08-30T14:01:22.903Z,8
2018-08-30T14:02:33.218Z,12
2018-08-30T14:03:43.032Z,4
2018-08-30T14:04:55.960Z,8
2018-08-30T14:06:08.061Z,52
2018-08-30T14:07:21.025Z,44
2018-08-30T14:08:32.863Z,12
2018-08-30T14:09:44.748Z,48
2018-08-30T14:10:55.052Z,12
2018-08-30T14:12:07.473Z,12
2018-08-30T14:13:20.549Z,8
2018-08-30T14:14:30.073Z,8
2018-08-30T14:15:41.242Z,4
2018-08-30T14:16:50.494Z,8
2018-08-30T14:18:00.464Z,8
2018-08-30T14:19:11.165Z,44
2018-08-30T14:20:20.691Z,44
2018-08-30T14:21:30.715Z,16
2018-08-30T14:22:39.889Z,12
2018-08-30T14:23:49.679Z,8
2018-08-30T14:24:59.241Z,8
2018-08-30T14:26:09.152Z,8
2018-08-30T14:27:18.186Z,8
2018-08-30T14:28:28.188Z,8
2018-08-30T14:29:38.366Z,8
2018-08-30T14:30:47.898Z,12
2018-08-30T14:31:57.061Z,28
2018-08-30T14:33:07.533Z,32
2018-08-30T14:34:17.719Z,32
2018-08-30T14:35:27.391Z,36
2018-08-30T14:36:36.913Z,28
2018-08-30T14:37:46.141Z,28
2018-08-30T14:38:55.765Z,8
2018-08-30T14:40:05.337Z,16
2018-08-30T14:41:16.339Z,8
2018-08-30T14:42:26.169Z,4
2018-08-30T14:43:35.766Z,20
2018-08-30T14:44:45.288Z,16
2018-08-30T14:45:54.714Z,12
2018-08-30T14:47:04.239Z,12
2018-08-30T14:48:14.250Z,8
2018-08-30T14:49:23.770Z,12
2018-08-30T14:50:32.678Z,8
2018-08-30T14:51:42.119Z,8
2018-08-30T14:52:51.676Z,8
2018-08-30T14:54:01.981Z,8
2018-08-30T14:55:11.743Z,8
2018-08-30T14:56:21.332Z,8
2018-08-30T14:57:30.674Z,12
2018-08-30T14:58:39.932Z,8
2018-08-30T14:59:48.589Z,8
2018-08-30T15:00:58.400Z,8
2018-08-30T15:02:08.068Z,8
2018-08-30T15:03:17.706Z,8
2018-08-30T15:04:27.446Z,8
2018-08-30T15:05:37.185Z,8
2018-08-30T15:06:46.817Z,8
2018-08-30T15:07:55.989Z,8
2018-08-30T15:09:04.998Z,8
2018-08-30T15:10:14.952Z,8
2018-08-30T15:11:25.271Z,8
2018-08-30T15:12:35.602Z,8
2018-08-30T15:13:45.161Z,8
2018-08-30T15:14:54.817Z,4
2018-08-30T15:16:04.828Z,4
2018-08-30T15:17:14.363Z,8
2018-08-30T15:18:24.090Z,8
2018-08-30T15:19:34.049Z,4
2018-08-30T15:20:43.313Z,4
2018-08-30T15:21:52.734Z,8
2018-08-30T15:23:02.374Z,8
2018-08-30T15:24:12.410Z,8
2018-08-30T15:25:21.923Z,8
2018-08-30T15:26:31.766Z,8
2018-08-30T15:27:41.397Z,8
2018-08-30T15:28:50.623Z,8
2018-08-30T15:29:59.888Z,8
2018-08-30T15:31:09.980Z,4
2018-08-30T15:32:19.163Z,4
2018-08-30T15:33:28.606Z,4
2018-08-30T15:34:38.049Z,4
2018-08-30T15:35:47.490Z,4
2018-08-30T15:36:56.986Z,4
2018-08-30T15:38:06.445Z,8
2018-08-30T15:39:15.380Z,4
2018-08-30T15:40:25.092Z,4
2018-08-30T15:41:34.443Z,4
2018-08-30T15:42:43.982Z,4
2018-08-30T15:43:53.498Z,8
2018-08-30T15:45:02.694Z,8
2018-08-30T15:46:12.740Z,4
2018-08-30T15:47:22.412Z,8
2018-08-30T15:48:32.343Z,8
2018-08-30T15:49:42.140Z,4
2018-08-30T15:50:51.071Z,8
2018-08-30T15:52:01.122Z,4
2018-08-30T15:53:10.716Z,8
2018-08-30T15:54:19.720Z,8
2018-08-30T15:55:29.456Z,4
2018-08-30T15:56:39.169Z,4
2018-08-30T15:57:48.611Z,4
2018-08-30T15:58:58.448Z,4
2018-08-30T16:00:08.161Z,4
2018-08-30T16:01:17.625Z,4
2018-08-30T16:02:27.068Z,4
2018-08-30T16:03:36.888Z,4
2018-08-30T16:04:46.523Z,4
2018-08-30T16:05:56.719Z,4
2018-08-30T16:07:06.560Z,4
2018-08-30T16:08:16.570Z,4
2018-08-30T16:09:26.297Z,8
2018-08-30T16:10:35.803Z,4
2018-08-30T16:11:45.254Z,4
2018-08-30T16:12:54.755Z,4
2018-08-30T16:14:04.720Z,4
2018-08-30T16:15:13.902Z,4
2018-08-30T16:16:23.071Z,4
2018-08-30T16:17:32.710Z,4
2018-08-30T16:18:42.449Z,4
2018-08-30T16:19:52.638Z,4
2018-08-30T16:21:02.070Z,4
2018-08-30T16:22:12.060Z,4
2018-08-30T16:23:22.445Z,4
2018-08-30T16:24:32.285Z,4
2018-08-30T16:25:42.408Z,4
2018-08-30T16:26:52.191Z,4
2018-08-30T16:28:01.744Z,4
2018-08-30T16:29:11.612Z,4
2018-08-30T16:30:21.263Z,4
2018-08-30T16:31:31.495Z,4
2018-08-30T16:32:40.793Z,4
2018-08-30T16:33:50.256Z,0
2018-08-30T16:34:58.923Z,0
2018-08-30T16:36:08.552Z,0
2018-08-30T16:37:17.470Z,0
2018-08-30T16:38:26.919Z,0
2018-08-30T16:39:36.485Z,4
2018-08-30T16:40:45.953Z,4
2018-08-30T16:41:54.853Z,4
2018-08-30T16:43:04.313Z,4
2018-08-30T16:44:13.786Z,4
2018-08-30T16:45:23.608Z,4
2018-08-30T16:46:33.232Z,4
2018-08-30T16:47:42.425Z,4
2018-08-30T16:48:51.963Z,4
2018-08-30T16:50:01.094Z,4
2018-08-30T16:51:10.266Z,4
2018-08-30T16:52:19.730Z,4
2018-08-30T16:53:29.856Z,4
2018-08-30T16:54:39.032Z,4
2018-08-30T16:55:48.457Z,4
2018-08-30T16:56:57.696Z,4
2018-08-30T16:58:06.346Z,4